Time;durP1;ratioP1;P1;durP2;ratioP2;P2;SDS_P1;SDS_P2;PMS_P1;PMS_P2;Temp;Humidity;BMP_temperature;BMP_pressure;BME280_temperature;BME280_humidity;BME280_pressure;Samples;Min_cycle;Max_cycle;Signal;HPM_P1;HPM_P2
2023/05/22 00:01:00;;;;;;;14.32;10.60;;;16.70;99.90;;;;;;4869639;29;20044;-72
2023/05/22 05:03:44;;;;;;;15.52;11.40;;;15.50;99.90;;;;;;4851600;29;20049;-72
2023/05/22 05:06:11;;;;;;;14.68;11.25;;;15.50;99.90;;;;;;4845553;29;20245;-71
2023/05/22 05:08:37;;;;;;;20.83;11.93;;;15.60;99.90;;;;;;4838115;29;20082;-71
2023/05/22 05:11:03;;;;;;;17.98;12.27;;;15.60;99.90;;;;;;4836740;29;20067;-72
2023/05/22 05:13:28;;;;;;;17.35;12.13;;;15.70;99.90;;;;;;4853638;29;20037;-71
2023/05/22 05:15:54;;;;;;;18.50;12.68;;;15.80;99.90;;;;;;4837636;29;20349;-71
2023/05/22 05:18:21;;;;;;;20.45;13.95;;;15.80;99.90;;;;;;4811030;29;20307;-74
2023/05/22 05:20:47;;;;;;;21.20;13.20;;;15.90;99.90;;;;;;4837265;29;20032;-71
2023/05/22 05:23:14;;;;;;;19.10;12.48;;;16.00;99.90;;;;;;4837363;29;20025;-71
2023/05/22 05:25:40;;;;;;;17.77;12.52;;;16.10;99.90;;;;;;4852348;29;20037;-71
2023/05/22 05:28:10;;;;;;;17.10;12.60;;;16.20;99.90;;;;;;4837794;29;20203;-71
2023/05/22 05:30:39;;;;;;;18.33;12.07;;;16.30;99.90;;;;;;4852337;29;20282;-73
2023/05/22 05:33:28;;;;;;;15.00;11.70;;;16.50;99.90;;;;;;4848099;29;20082;-71
2023/05/22 05:36:04;;;;;;;14.05;11.15;;;16.70;99.90;;;;;;4828665;29;20093;-72
2023/05/22 05:38:31;;;;;;;17.17;11.15;;;16.80;99.90;;;;;;4818751;29;20042;-72
2023/05/22 05:40:57;;;;;;;14.85;10.48;;;17.00;99.90;;;;;;4828638;29;20038;-71
2023/05/22 05:43:24;;;;;;;13.68;10.10;;;17.10;99.90;;;;;;4836801;29;20033;-73
2023/05/22 05:45:51;;;;;;;15.30;11.10;;;17.30;99.90;;;;;;4837079;29;20030;-72
2023/05/22 05:48:16;;;;;;;15.55;10.43;;;17.50;99.90;;;;;;4853267;29;20093;-72
2023/05/22 05:50:44;;;;;;;15.40;12.02;;;17.70;99.90;;;;;;4852281;29;20037;-72
2023/05/22 05:53:11;;;;;;;14.98;10.77;;;17.80;99.90;;;;;;4852247;29;20097;-72
2023/05/22 05:55:38;;;;;;;15.63;10.80;;;17.90;99.90;;;;;;4828794;29;20235;-71
2023/05/22 05:58:04;;;;;;;16.15;10.52;;;18.00;99.90;;;;;;4840894;29;20522;-73
2023/05/22 06:00:41;;;;;;;14.38;11.00;;;18.10;99.90;;;;;;4836292;29;20029;-71
2023/05/22 06:03:07;;;;;;;19.25;11.70;;;18.20;99.90;;;;;;4847147;29;20050;-72
2023/05/22 06:05:50;;;;;;;15.32;11.15;;;18.10;99.90;;;;;;4833925;29;20042;-72
2023/05/22 06:08:22;;;;;;;15.10;11.10;;;18.10;99.90;;;;;;4836461;29;20358;-72
2023/05/22 06:10:48;;;;;;;18.35;11.55;;;18.10;99.90;;;;;;4844290;29;20045;-72
2023/05/22 06:13:29;;;;;;;13.82;10.50;;;18.10;99.90;;;;;;4822891;29;20106;-72
2023/05/22 06:15:55;;;;;;;13.52;10.73;;;18.30;99.90;;;;;;4821165;29;20034;-72
2023/05/22 06:18:22;;;;;;;13.57;10.57;;;18.50;99.90;;;;;;4836191;29;20034;-72
2023/05/22 06:20:48;;;;;;;16.88;11.45;;;18.60;99.90;;;;;;4836628;29;20026;-71
2023/05/22 06:23:14;;;;;;;18.92;11.55;;;18.80;99.90;;;;;;4836062;29;20207;-72
2023/05/22 06:25:39;;;;;;;17.02;12.15;;;19.00;99.90;;;;;;4852438;29;20095;-71
2023/05/22 06:28:05;;;;;;;17.50;11.98;;;19.00;99.90;;;;;;4842478;29;20112;-71
2023/05/22 06:30:31;;;;;;;19.33;11.68;;;19.10;99.90;;;;;;4851912;29;20033;-73
2023/05/22 06:32:57;;;;;;;19.15;12.10;;;19.10;99.90;;;;;;4851852;29;20109;-72
2023/05/22 06:35:24;;;;;;;17.85;12.70;;;19.20;99.90;;;;;;4851286;29;20026;-72
2023/05/22 06:37:50;;;;;;;17.23;11.70;;;19.20;99.90;;;;;;4851266;29;20030;-71
2023/05/22 06:40:16;;;;;;;17.83;11.57;;;19.30;99.90;;;;;;4852711;29;20375;-72
2023/05/22 06:42:51;;;;;;;16.35;12.20;;;19.30;99.90;;;;;;4836126;29;20038;-72
2023/05/22 06:45:31;;;;;;;18.52;11.07;;;19.50;99.90;;;;;;4836185;29;20249;-71
2023/05/22 06:48:16;;;;;;;16.85;11.65;;;19.60;99.90;;;;;;4851469;29;20045;-72
2023/05/22 06:50:55;;;;;;;16.40;12.02;;;19.70;99.90;;;;;;4836191;29;20174;-72
2023/05/22 06:53:22;;;;;;;16.48;11.98;;;19.80;99.90;;;;;;4835540;29;20200;-72
2023/05/22 06:55:49;;;;;;;14.27;11.45;;;19.80;99.90;;;;;;4851247;29;20036;-72
2023/05/22 06:58:22;;;;;;;27.90;12.45;;;20.00;99.90;;;;;;4838598;29;20050;-72
2023/05/22 07:00:49;;;;;;;15.23;11.52;;;20.00;99.90;;;;;;4835735;29;20041;-70
2023/05/22 07:03:20;;;;;;;17.05;12.82;;;20.10;99.90;;;;;;4835429;29;20053;-71
2023/05/22 07:06:06;;;;;;;16.05;12.10;;;20.10;99.90;;;;;;4852162;29;20105;-70
2023/05/22 07:08:33;;;;;;;16.75;11.98;;;20.20;99.90;;;;;;4835433;29;20036;-71
2023/05/22 07:11:00;;;;;;;15.27;11.25;;;20.30;99.90;;;;;;4851987;29;20046;-70
2023/05/22 07:13:27;;;;;;;14.98;11.05;;;20.50;99.90;;;;;;4835340;29;20022;-71
2023/05/22 07:15:53;;;;;;;16.67;11.93;;;20.70;99.90;;;;;;4851908;29;20034;-72
2023/05/22 07:18:19;;;;;;;16.40;11.88;;;20.90;99.90;;;;;;4835169;29;20044;-71
2023/05/22 07:20:45;;;;;;;15.48;11.30;;;21.00;99.90;;;;;;4851661;29;20034;-76
2023/05/22 07:23:14;;;;;;;15.27;10.75;;;21.20;99.90;;;;;;4835546;29;20034;-72
2023/05/22 07:25:42;;;;;;;20.90;11.10;;;21.20;99.90;;;;;;4835248;29;20034;-71
2023/05/22 07:28:09;;;;;;;14.52;10.88;;;21.40;99.90;;;;;;4851624;29;20371;-72
2023/05/22 07:30:45;;;;;;;13.68;11.00;;;21.70;99.90;;;;;;4834976;29;20046;-71
2023/05/22 07:33:12;;;;;;;14.60;10.77;;;21.90;99.90;;;;;;4835601;29;20109;-71
2023/05/22 07:35:38;;;;;;;18.27;11.73;;;22.00;99.90;;;;;;4835087;29;20053;-70
2023/05/22 07:38:04;;;;;;;17.20;11.40;;;22.30;99.90;;;;;;4835544;29;20030;-71
2023/05/22 07:40:30;;;;;;;15.48;11.90;;;22.40;99.50;;;;;;4836112;29;20109;-72
2023/05/22 07:42:55;;;;;;;14.68;10.80;;;22.50;98.90;;;;;;4839129;29;20212;-70
2023/05/22 07:45:21;;;;;;;18.00;11.50;;;22.60;99.00;;;;;;4839042;29;20211;-71
2023/05/22 07:47:47;;;;;;;15.40;11.50;;;22.60;98.30;;;;;;4839122;29;20033;-71
2023/05/22 07:50:13;;;;;;;16.65;10.50;;;22.80;98.30;;;;;;4839447;29;20082;-70
2023/05/22 07:52:43;;;;;;;19.38;10.63;;;23.10;97.80;;;;;;4838354;29;20057;-70
2023/05/22 07:55:10;;;;;;;16.33;12.02;;;23.30;97.70;;;;;;4839033;29;20038;-71
2023/05/22 07:57:38;;;;;;;17.33;10.50;;;23.20;96.70;;;;;;4838539;29;20264;-72
2023/05/22 08:00:13;;;;;;;15.23;10.30;;;23.30;96.90;;;;;;4839042;29;20082;-72
2023/05/22 08:02:40;;;;;;;16.65;10.52;;;23.60;96.60;;;;;;4854372;29;20053;-71
2023/05/22 08:05:07;;;;;;;14.23;9.75;;;23.90;96.60;;;;;;4855354;29;20083;-71
2023/05/22 08:07:32;;;;;;;14.05;9.93;;;24.10;95.50;;;;;;4854678;29;20113;-71
2023/05/22 08:10:01;;;;;;;14.70;9.90;;;24.30;95.60;;;;;;4855140;29;20038;-72
2023/05/22 08:12:26;;;;;;;;;;;24.30;94.80;;;;;;4838592;29;20045;-71
2023/05/22 08:14:52;;;;;;;13.25;9.52;;;24.20;94.70;;;;;;4855049;29;19908;-71
2023/05/22 08:17:18;;;;;;;21.27;9.88;;;24.20;94.80;;;;;;4855044;29;20041;-71
2023/05/22 08:19:43;;;;;;;12.93;10.27;;;24.20;95.10;;;;;;4854330;29;20038;-70
2023/05/22 08:22:09;;;;;;;13.57;10.77;;;24.30;94.60;;;;;;4854685;29;20747;-72
2023/05/22 08:24:35;;;;;;;17.70;10.00;;;24.20;94.80;;;;;;4854252;29;20044;-72
2023/05/22 08:27:01;;;;;;;17.50;10.32;;;24.40;94.70;;;;;;4854443;29;20068;-70
2023/05/22 08:29:27;;;;;;;13.00;9.45;;;24.60;94.40;;;;;;4854583;29;20034;-74
2023/05/22 08:31:55;;;;;;;14.38;10.25;;;24.90;94.10;;;;;;4854493;29;20217;-72
2023/05/22 08:34:21;;;;;;;13.50;10.52;;;24.90;93.50;;;;;;4854995;29;20089;-74
2023/05/22 08:36:48;;;;;;;13.85;10.02;;;25.00;93.40;;;;;;4854191;29;20026;-73
2023/05/22 08:39:15;;;;;;;12.60;9.38;;;25.20;93.00;;;;;;4854508;29;20262;-72
2023/05/22 08:41:43;;;;;;;14.05;9.50;;;25.30;92.70;;;;;;4854239;29;20057;-71
2023/05/22 08:44:09;;;;;;;13.27;9.70;;;25.50;92.60;;;;;;4854620;29;20214;-72
2023/05/22 08:46:40;;;;;;;14.27;10.73;;;25.20;92.30;;;;;;4854007;29;20057;-73
2023/05/22 08:49:08;;;;;;;17.58;10.55;;;25.10;92.50;;;;;;4854267;29;20239;-73
2023/05/22 08:51:37;;;;;;;10.13;8.82;;;25.10;92.70;;;;;;4853140;29;20038;-72
2023/05/22 08:54:07;;;;;;;11.70;8.35;;;25.10;92.20;;;;;;4837004;29;20050;-73
2023/05/22 08:56:37;;;;;;;9.73;7.65;;;25.00;91.70;;;;;;4853791;29;20322;-74
2023/05/22 08:59:04;;;;;;;11.60;8.63;;;25.10;92.10;;;;;;4847339;29;20045;-72
2023/05/22 09:01:31;;;;;;;13.30;8.00;;;25.00;91.80;;;;;;4853856;29;20037;-74
2023/05/22 09:04:03;;;;;;;10.80;8.13;;;25.00;91.70;;;;;;4863526;29;20057;-73
2023/05/22 09:06:29;;;;;;;12.48;8.35;;;25.10;91.70;;;;;;4854793;29;20037;-72
2023/05/22 09:09:02;;;;;;;9.55;8.13;;;25.30;91.60;;;;;;4853955;29;20042;-73
2023/05/22 09:11:28;;;;;;;14.27;8.50;;;25.60;91.20;;;;;;4843952;29;20208;-74
2023/05/22 09:14:07;;;;;;;12.40;8.57;;;25.80;90.80;;;;;;4837618;29;20037;-73
2023/05/22 09:16:42;;;;;;;13.27;7.88;;;25.90;90.50;;;;;;4853357;29;20033;-72
2023/05/22 09:19:07;;;;;;;16.30;8.35;;;26.10;90.30;;;;;;4853975;29;20045;-75
2023/05/22 09:21:36;;;;;;;11.05;7.50;;;26.10;90.40;;;;;;4853458;29;20376;-70
2023/05/22 09:24:01;;;;;;;;;;;26.30;90.80;;;;;;4854298;29;20038;-70
2023/05/22 09:26:28;;;;;;;13.38;8.50;;;26.60;90.30;;;;;;4863775;29;19911;-72
2023/05/22 09:28:54;;;;;;;15.45;8.80;;;26.90;90.30;;;;;;4853224;29;20343;-71
2023/05/22 09:31:19;;;;;;;12.63;8.23;;;27.30;90.50;;;;;;4853696;29;20049;-71
2023/05/22 09:33:45;;;;;;;13.32;7.75;;;27.50;89.00;;;;;;4853093;29;20034;-71
2023/05/22 09:36:11;;;;;;;9.60;8.07;;;27.70;87.90;;;;;;4837596;29;20026;-71
2023/05/22 09:38:38;;;;;;;10.82;7.93;;;27.80;87.40;;;;;;4852974;29;20320;-70
2023/05/22 09:41:04;;;;;;;13.45;9.00;;;27.70;87.40;;;;;;4853266;29;20099;-70
2023/05/22 09:43:32;;;;;;;11.05;8.48;;;27.90;86.60;;;;;;4857475;29;20030;-71
2023/05/22 09:46:03;;;;;;;10.30;8.68;;;28.00;87.00;;;;;;4853154;29;20216;-71
2023/05/22 09:48:37;;;;;;;10.45;8.55;;;28.00;85.90;;;;;;4852417;29;20029;-71
2023/05/22 09:51:04;;;;;;;14.95;8.25;;;27.90;85.60;;;;;;4853300;29;20060;-71
2023/05/22 09:53:32;;;;;;;17.05;8.57;;;27.90;86.60;;;;;;4853101;29;20350;-71
2023/05/22 09:55:59;;;;;;;15.00;8.25;;;28.00;86.80;;;;;;4852874;29;20253;-71
2023/05/22 09:58:32;;;;;;;10.43;8.48;;;28.10;86.60;;;;;;4853275;29;20029;-71
2023/05/22 10:00:58;;;;;;;10.13;8.15;;;28.10;85.90;;;;;;4852644;29;20192;-72
2023/05/22 10:03:25;;;;;;;10.75;7.78;;;27.90;86.00;;;;;;4842848;29;20239;-70
2023/05/22 10:05:55;;;;;;;13.20;8.38;;;27.90;85.60;;;;;;4851925;29;20201;-70
2023/05/22 10:08:26;;;;;;;10.82;8.98;;;27.70;85.50;;;;;;4853202;29;20044;-71
2023/05/22 10:10:53;;;;;;;10.77;7.45;;;27.60;86.00;;;;;;4852167;29;20049;-69
2023/05/22 10:13:19;;;;;;;9.07;7.68;;;27.50;87.20;;;;;;4852666;29;20364;-71
2023/05/22 10:15:49;;;;;;;11.63;8.10;;;27.60;86.10;;;;;;4852224;29;20033;-71
2023/05/22 10:18:16;;;;;;;10.77;8.40;;;27.60;86.00;;;;;;4852891;29;20033;-70
2023/05/22 10:20:42;;;;;;;9.80;8.00;;;27.50;85.40;;;;;;4852093;29;20042;-69
2023/05/22 10:23:09;;;;;;;9.52;8.00;;;27.50;86.00;;;;;;4853185;29;20030;-70
2023/05/22 10:25:38;;;;;;;9.32;7.53;;;27.50;85.80;;;;;;4852129;29;20050;-69
2023/05/22 10:28:05;;;;;;;12.15;8.52;;;27.60;85.50;;;;;;4852444;29;20037;-70
2023/05/22 10:30:41;;;;;;;10.38;7.90;;;27.70;85.10;;;;;;4852658;29;20076;-71
2023/05/22 10:33:33;;;;;;;11.75;8.50;;;27.70;85.20;;;;;;4848572;29;20033;-69
2023/05/22 10:36:38;;;;;;;9.75;8.05;;;27.90;85.50;;;;;;4836455;29;20034;-70
2023/05/22 10:39:39;;;;;;;9.93;8.15;;;27.80;84.50;;;;;;4852616;29;20053;-72
2023/05/22 10:42:11;;;;;;;9.88;8.70;;;28.00;84.20;;;;;;4829649;29;20056;-70
2023/05/22 10:44:37;;;;;;;13.43;8.65;;;27.80;84.50;;;;;;4851931;29;20049;-70
2023/05/22 10:47:12;;;;;;;12.77;8.32;;;27.90;84.80;;;;;;4852021;29;20046;-70
2023/05/22 10:49:45;;;;;;;10.73;8.30;;;27.90;82.60;;;;;;4851872;29;20064;-71
2023/05/22 10:52:14;;;;;;;9.77;8.60;;;28.00;83.40;;;;;;4851971;29;20059;-70
2023/05/22 10:54:42;;;;;;;10.35;8.57;;;28.10;84.40;;;;;;4835613;29;20032;-68
2023/05/22 10:57:15;;;;;;;;;;;28.00;84.80;;;;;;4852607;29;20104;-69
2023/05/22 10:59:42;;;;;;;13.57;8.85;;;27.70;85.50;;;;;;4851548;29;19908;-71
2023/05/22 11:02:29;;;;;;;28.17;9.73;;;27.90;85.90;;;;;;4853129;29;20058;-72
2023/05/22 11:05:24;;;;;;;10.80;8.30;;;28.10;85.50;;;;;;4851422;29;20041;-70
2023/05/22 11:07:49;;;;;;;9.80;8.65;;;28.30;83.00;;;;;;4851850;29;20050;-72
2023/05/22 11:10:25;;;;;;;10.00;8.13;;;28.40;83.00;;;;;;4852014;29;20033;-72
2023/05/22 11:13:11;;;;;;;10.80;8.18;;;28.50;82.60;;;;;;4851470;29;20053;-71
2023/05/22 11:15:44;;;;;;;11.43;8.25;;;28.80;82.50;;;;;;4850818;29;20038;-69
2023/05/22 11:18:18;;;;;;;10.57;7.75;;;28.90;81.60;;;;;;4850866;29;20041;-74
2023/05/22 11:20:45;;;;;;;12.50;8.52;;;28.90;82.80;;;;;;4834784;29;20034;-69
2023/05/22 11:23:11;;;;;;;9.02;7.95;;;29.00;81.50;;;;;;4851591;29;20219;-73
2023/05/22 11:25:39;;;;;;;12.15;7.68;;;29.30;81.60;;;;;;4851005;29;20018;-70
2023/05/22 11:28:06;;;;;;;10.40;7.57;;;29.70;78.90;;;;;;4844719;29;20026;-70
2023/05/22 11:30:33;;;;;;;9.65;7.53;;;30.00;79.20;;;;;;4835409;29;20101;-70
2023/05/22 11:33:00;;;;;;;11.63;7.88;;;30.40;78.50;;;;;;4851164;29;20270;-70
2023/05/22 11:35:27;;;;;;;10.05;7.60;;;30.80;78.10;;;;;;4851733;29;20075;-71
2023/05/22 11:37:54;;;;;;;8.18;7.10;;;31.20;77.20;;;;;;4850962;29;20042;-71
2023/05/22 11:40:23;;;;;;;8.83;6.50;;;31.60;77.30;;;;;;4853183;29;20044;-72
2023/05/22 11:42:49;;;;;;;9.57;6.80;;;32.40;74.20;;;;;;4850966;29;20057;-72
2023/05/22 11:45:16;;;;;;;7.78;6.97;;;33.20;72.20;;;;;;4835318;29;20041;-72
2023/05/22 11:47:43;;;;;;;7.78;6.30;;;33.80;70.70;;;;;;4854541;29;20303;-71
2023/05/22 11:50:10;;;;;;;8.23;6.35;;;34.40;71.20;;;;;;4893639;29;20048;-72
2023/05/22 11:52:39;;;;;;;6.90;6.20;;;35.40;69.60;;;;;;4894937;29;20044;-71
2023/05/22 11:55:06;;;;;;;8.07;5.53;;;36.30;66.40;;;;;;4892086;29;20067;-70
2023/05/22 11:57:33;;;;;;;6.97;5.77;;;36.70;64.70;;;;;;4895321;29;20028;-72
2023/05/22 12:00:00;;;;;;;7.18;6.43;;;36.90;63.90;;;;;;4871394;29;20041;-73
2023/05/22 12:02:26;;;;;;;7.43;6.07;;;37.70;62.00;;;;;;4889832;29;20053;-71
2023/05/22 12:04:56;;;;;;;6.70;6.00;;;37.90;61.30;;;;;;4888112;29;20088;-71
2023/05/22 12:07:23;;;;;;;6.82;5.85;;;38.00;63.50;;;;;;4888334;29;20025;-71
2023/05/22 12:09:49;;;;;;;6.63;5.50;;;38.70;63.40;;;;;;4871487;29;20374;-70
2023/05/22 12:12:15;;;;;;;8.65;5.97;;;38.60;59.10;;;;;;4888501;29;20089;-70
2023/05/22 12:14:44;;;;;;;6.93;5.68;;;38.70;58.90;;;;;;4887773;29;20021;-73
2023/05/22 12:17:14;;;;;;;6.32;5.38;;;39.10;59.50;;;;;;4888211;29;20060;-72
2023/05/22 12:19:40;;;;;;;7.57;5.57;;;39.30;57.80;;;;;;4887548;29;20032;-71
2023/05/22 12:22:07;;;;;;;8.73;5.43;;;39.60;57.90;;;;;;4888217;29;20256;-71
2023/05/22 12:24:45;;;;;;;6.65;5.45;;;40.10;56.90;;;;;;4888440;29;20033;-73
2023/05/22 12:27:12;;;;;;;8.93;5.38;;;40.40;55.90;;;;;;4890221;29;20077;-71
2023/05/22 12:29:38;;;;;;;6.57;5.78;;;40.40;56.30;;;;;;4875222;29;20101;-73
2023/05/22 12:32:07;;;;;;;6.18;5.57;;;40.90;55.30;;;;;;4892139;29;20048;-74
2023/05/22 12:34:34;;;;;;;6.43;5.80;;;41.20;54.70;;;;;;4891576;29;20231;-72
2023/05/22 12:37:00;;;;;;;6.20;5.03;;;41.30;54.10;;;;;;4891185;29;20033;-72
2023/05/22 12:39:27;;;;;;;7.22;5.50;;;41.50;52.40;;;;;;4891418;29;20356;-73
2023/05/22 12:41:53;;;;;;;6.40;5.53;;;41.70;54.10;;;;;;4890946;29;20053;-73
2023/05/22 12:44:18;;;;;;;8.98;5.60;;;42.00;53.00;;;;;;4875043;29;20131;-72
2023/05/22 12:46:44;;;;;;;6.68;5.70;;;42.90;52.40;;;;;;4874393;29;20341;-71
2023/05/22 12:49:10;;;;;;;6.22;5.60;;;42.60;51.40;;;;;;4891661;29;20366;-73
2023/05/22 12:51:36;;;;;;;7.72;5.80;;;41.60;51.80;;;;;;4891379;29;20032;-71
2023/05/22 12:54:02;;;;;;;8.00;5.85;;;40.70;52.50;;;;;;4891026;29;20029;-73
2023/05/22 12:56:29;;;;;;;6.13;5.53;;;41.00;53.00;;;;;;4891229;29;20218;-73
2023/05/22 12:58:56;;;;;;;6.47;5.40;;;41.10;53.80;;;;;;4890785;29;20041;-73
2023/05/22 13:01:23;;;;;;;7.00;5.90;;;42.40;53.00;;;;;;4891400;29;20029;-73
2023/05/22 13:03:52;;;;;;;7.53;5.80;;;42.20;51.30;;;;;;4892054;29;20330;-71
2023/05/22 13:06:18;;;;;;;7.00;6.35;;;41.90;51.60;;;;;;4874552;29;20481;-73
2023/05/22 13:08:44;;;;;;;7.78;6.07;;;39.00;52.90;;;;;;4891631;29;20017;-72
2023/05/22 13:11:12;;;;;;;7.35;6.28;;;37.70;54.40;;;;;;4874108;29;20084;-72
2023/05/22 13:13:38;;;;;;;7.10;6.40;;;36.60;56.30;;;;;;4858979;29;20370;-75
2023/05/22 13:16:04;;;;;;;10.52;7.05;;;35.80;57.10;;;;;;4873862;29;20088;-73
2023/05/22 13:18:30;;;;;;;9.10;6.93;;;37.10;57.40;;;;;;4891026;29;20041;-72
2023/05/22 13:20:56;;;;;;;7.28;5.90;;;38.80;55.50;;;;;;4889978;29;20100;-73
2023/05/22 13:23:22;;;;;;;8.98;6.20;;;40.60;54.00;;;;;;4874274;29;20319;-73
2023/05/22 13:25:48;;;;;;;6.85;5.70;;;42.20;52.30;;;;;;4890161;29;20064;-73
2023/05/22 13:28:14;;;;;;;6.93;6.20;;;42.80;50.70;;;;;;4890939;29;20056;-74
2023/05/22 13:30:39;;;;;;;8.20;5.95;;;43.70;50.80;;;;;;4890946;29;20039;-72
2023/05/22 13:33:05;;;;;;;5.63;4.70;;;44.30;49.50;;;;;;4889903;29;20036;-72
2023/05/22 13:35:31;;;;;;;6.85;5.30;;;44.00;49.00;;;;;;4890515;29;20037;-77
2023/05/22 13:37:57;;;;;;;6.80;5.57;;;43.80;48.90;;;;;;4889649;29;20045;-73
2023/05/22 13:40:23;;;;;;;9.23;5.35;;;43.50;49.10;;;;;;4890660;29;20104;-71
2023/05/22 13:42:50;;;;;;;7.63;5.35;;;44.60;49.20;;;;;;4890075;29;20273;-71
2023/05/22 13:45:16;;;;;;;7.60;5.00;;;45.70;47.40;;;;;;4890592;29;20044;-74
2023/05/22 13:47:42;;;;;;;6.73;5.97;;;45.40;47.00;;;;;;4890544;29;20041;-74
2023/05/22 13:50:08;;;;;;;6.32;4.80;;;44.80;47.30;;;;;;4890085;29;20028;-69
2023/05/22 13:52:34;;;;;;;5.67;5.07;;;44.20;46.80;;;;;;4890335;29;20085;-72
2023/05/22 13:55:00;;;;;;;12.63;5.45;;;43.70;47.10;;;;;;4889985;29;20092;-72
2023/05/22 13:57:25;;;;;;;5.65;4.93;;;43.40;47.60;;;;;;4873323;29;20272;-73
2023/05/22 13:59:51;;;;;;;6.40;5.28;;;44.00;47.70;;;;;;4889614;29;20103;-72
2023/05/22 14:02:19;;;;;;;6.03;5.30;;;44.30;46.90;;;;;;4892352;29;20410;-69
2023/05/22 14:04:46;;;;;;;7.65;5.03;;;44.30;47.70;;;;;;4889622;29;20048;-71
2023/05/22 14:07:13;;;;;;;6.30;4.95;;;44.30;47.30;;;;;;4890084;29;20037;-71
2023/05/22 14:09:39;;;;;;;5.75;4.90;;;44.40;46.50;;;;;;4889885;29;20227;-72
2023/05/22 14:12:05;;;;;;;7.15;4.90;;;44.30;47.00;;;;;;4889781;29;20036;-71
2023/05/22 14:14:30;;;;;;;11.33;5.07;;;44.30;46.10;;;;;;4890282;29;20095;-72
2023/05/22 14:16:56;;;;;;;9.93;5.10;;;44.80;45.50;;;;;;4889646;29;20029;-73
2023/05/22 14:19:23;;;;;;;5.47;4.83;;;44.70;45.30;;;;;;4890047;29;20028;-72
2023/05/22 14:21:52;;;;;;;10.00;5.10;;;43.10;46.80;;;;;;4889166;29;20029;-73
2023/05/22 14:24:17;;;;;;;6.20;4.93;;;42.10;46.90;;;;;;4889640;29;20332;-71
2023/05/22 14:26:43;;;;;;;5.40;4.88;;;40.00;48.40;;;;;;4889505;29;20029;-73
2023/05/22 14:29:10;;;;;;;6.10;5.50;;;38.50;50.10;;;;;;4889832;29;20045;-71
2023/05/22 14:31:47;;;;;;;5.80;4.87;;;37.40;50.90;;;;;;4873092;29;20041;-72
2023/05/22 14:34:14;;;;;;;8.27;5.40;;;36.60;51.20;;;;;;4889808;29;20037;-70
2023/05/22 14:36:40;;;;;;;7.68;5.60;;;35.00;52.50;;;;;;4889955;29;20061;-71
2023/05/22 14:39:06;;;;;;;9.02;5.70;;;34.20;53.40;;;;;;4889127;29;20053;-72
2023/05/22 14:41:32;;;;;;;7.10;5.22;;;33.90;54.40;;;;;;4889838;29;20021;-72
2023/05/22 14:43:57;;;;;;;7.40;5.72;;;33.80;56.30;;;;;;4888899;29;20096;-73
2023/05/22 14:46:23;;;;;;;7.90;6.18;;;33.80;56.40;;;;;;4889850;29;20044;-71
2023/05/22 14:48:49;;;;;;;6.97;6.28;;;34.00;56.80;;;;;;4889056;29;20029;-72
2023/05/22 14:51:16;;;;;;;10.13;6.55;;;33.60;55.50;;;;;;4889508;29;20025;-71
2023/05/22 14:53:42;;;;;;;8.80;6.25;;;32.80;56.10;;;;;;4889619;29;20069;-72
2023/05/22 14:56:07;;;;;;;8.20;6.28;;;32.60;56.90;;;;;;4889237;29;20036;-71
2023/05/22 14:58:33;;;;;;;7.43;5.82;;;32.40;56.90;;;;;;4889313;29;20029;-73
2023/05/22 15:00:59;;;;;;;8.20;5.93;;;32.20;56.70;;;;;;4889105;29;20045;-72
2023/05/22 15:03:24;;;;;;;9.15;6.32;;;32.10;58.00;;;;;;4893141;29;20048;-73
2023/05/22 15:05:50;;;;;;;7.57;6.72;;;31.80;57.60;;;;;;4888699;29;20486;-72
2023/05/22 15:08:18;;;;;;;11.13;6.38;;;31.30;59.70;;;;;;4888990;29;20048;-71
2023/05/22 15:10:45;;;;;;;8.75;5.75;;;30.50;60.90;;;;;;4888814;29;20047;-72
2023/05/22 15:13:12;;;;;;;7.07;5.43;;;29.80;61.30;;;;;;4888964;29;20041;-71
2023/05/22 15:15:39;;;;;;;6.75;4.95;;;29.40;60.00;;;;;;4889289;29;20037;-71
2023/05/22 15:18:05;;;;;;;8.00;5.45;;;29.20;61.30;;;;;;4888759;29;20037;-69
2023/05/22 15:20:31;;;;;;;7.40;5.20;;;29.30;73.00;;;;;;4888984;29;20044;-71
2023/05/22 15:22:58;;;;;;;7.95;5.20;;;29.00;69.30;;;;;;4888242;29;20338;-72
2023/05/22 15:25:23;;;;;;;6.45;5.00;;;29.30;66.40;;;;;;4888889;29;20016;-74
2023/05/22 15:27:49;;;;;;;10.63;4.90;;;30.50;66.10;;;;;;4887962;29;20097;-70
2023/05/22 15:30:15;;;;;;;6.82;5.57;;;31.60;62.60;;;;;;4888722;29;20052;-69
2023/05/22 15:32:41;;;;;;;7.10;4.85;;;31.10;60.70;;;;;;4888518;29;20041;-71
2023/05/22 15:35:09;;;;;;;6.32;4.13;;;29.90;61.80;;;;;;4888000;29;20023;-71
2023/05/22 15:37:35;;;;;;;5.25;4.18;;;30.00;61.60;;;;;;4888885;29;20036;-69
2023/05/22 15:40:02;;;;;;;7.05;3.67;;;29.70;60.60;;;;;;4888094;29;20390;-70
2023/05/22 15:42:29;;;;;;;8.40;4.80;;;29.20;60.90;;;;;;4872312;29;20029;-70
2023/05/22 15:44:59;;;;;;;6.70;4.40;;;29.50;60.10;;;;;;4888359;29;20036;-70
2023/05/22 15:47:33;;;;;;;5.50;4.13;;;29.90;60.10;;;;;;4888549;29;20123;-70
2023/05/22 15:50:00;;;;;;;6.75;4.63;;;31.10;58.70;;;;;;4887516;29;20036;-72
2023/05/22 15:52:31;;;;;;;6.10;4.30;;;31.00;58.70;;;;;;4887307;29;20150;-69
2023/05/22 15:54:57;;;;;;;6.28;4.38;;;31.80;58.40;;;;;;4887698;29;20047;-72
2023/05/22 15:57:25;;;;;;;7.25;4.97;;;31.60;58.30;;;;;;4888678;29;20025;-70
2023/05/22 15:59:50;;;;;;;6.97;4.75;;;30.70;60.10;;;;;;4888025;29;20037;-70
2023/05/22 16:02:17;;;;;;;6.63;4.80;;;29.80;61.10;;;;;;4890386;29;20045;-70
2023/05/22 16:04:43;;;;;;;6.40;5.22;;;29.50;62.10;;;;;;4892461;29;20104;-71
2023/05/22 16:07:09;;;;;;;5.38;4.68;;;29.30;62.30;;;;;;4891810;29;20326;-71
2023/05/22 16:09:35;;;;;;;7.88;5.07;;;29.60;62.50;;;;;;4892423;29;20060;-71
2023/05/22 16:12:01;;;;;;;7.07;4.55;;;30.40;61.10;;;;;;4891709;29;20210;-71
2023/05/22 16:14:27;;;;;;;5.38;4.45;;;31.90;59.30;;;;;;4892113;29;20231;-70
2023/05/22 16:16:52;;;;;;;5.07;4.03;;;32.90;56.80;;;;;;4891635;29;20025;-70
2023/05/22 16:19:18;;;;;;;6.28;5.03;;;34.50;55.90;;;;;;4892000;29;20044;-73
2023/05/22 16:21:44;;;;;;;6.15;4.40;;;35.80;54.30;;;;;;4892280;29;20060;-75
2023/05/22 16:24:10;;;;;;;5.63;4.32;;;36.40;53.70;;;;;;4891472;29;20314;-74
2023/05/22 16:26:38;;;;;;;6.05;4.60;;;36.40;53.10;;;;;;4894251;29;20033;-74
2023/05/22 16:29:10;;;;;;;5.53;3.88;;;37.00;52.80;;;;;;4891386;29;20021;-73
2023/05/22 16:31:36;;;;;;;5.30;3.75;;;37.10;52.50;;;;;;4891737;29;20098;-73
2023/05/22 16:34:03;;;;;;;4.90;3.65;;;38.70;51.40;;;;;;4891128;29;20264;-77
2023/05/22 16:36:31;;;;;;;6.43;3.60;;;38.60;50.60;;;;;;4875593;29;20017;-77
2023/05/22 16:38:57;;;;;;;6.00;4.20;;;37.90;51.80;;;;;;4891056;29;20039;-73
2023/05/22 16:41:23;;;;;;;7.85;4.63;;;37.10;53.00;;;;;;4891333;29;20341;-73
2023/05/22 16:43:49;;;;;;;6.07;4.20;;;35.30;54.30;;;;;;4891260;29;20028;-74
2023/05/22 16:46:15;;;;;;;6.15;4.70;;;33.20;56.60;;;;;;4891286;29;20044;-74
2023/05/22 16:48:41;;;;;;;7.20;4.75;;;31.80;59.00;;;;;;4891647;29;20045;-74
2023/05/22 16:51:07;;;;;;;5.95;4.47;;;31.10;60.20;;;;;;4890996;29;20438;-73
2023/05/22 16:53:33;;;;;;;6.50;4.80;;;30.60;61.80;;;;;;4892110;29;20036;-72
2023/05/22 16:55:58;;;;;;;7.65;4.60;;;30.00;62.40;;;;;;4892933;29;20044;-73
2023/05/22 16:58:25;;;;;;;5.95;4.25;;;29.70;63.60;;;;;;4891773;29;20097;-72
2023/05/22 17:00:51;;;;;;;7.97;5.20;;;29.60;63.80;;;;;;4890698;29;20052;-72
2023/05/22 17:03:16;;;;;;;7.13;5.40;;;29.20;64.70;;;;;;4890840;29;20059;-72
2023/05/22 17:05:42;;;;;;;7.30;5.20;;;29.00;65.60;;;;;;4891462;29;20060;-73
2023/05/22 17:08:08;;;;;;;6.05;4.68;;;28.80;66.40;;;;;;4890582;29;20056;-73
2023/05/22 17:10:34;;;;;;;7.10;5.07;;;28.90;66.90;;;;;;4891100;29;20021;-73
2023/05/22 17:12:59;;;;;;;5.35;4.55;;;28.90;66.80;;;;;;4889516;29;20036;-73
2023/05/22 17:15:25;;;;;;;6.43;4.78;;;28.90;66.60;;;;;;4891046;29;20096;-74
2023/05/22 17:17:51;;;;;;;6.05;4.60;;;28.50;66.90;;;;;;4890597;29;20378;-73
2023/05/22 17:20:17;;;;;;;5.82;4.32;;;28.50;67.50;;;;;;4890617;29;20093;-74
2023/05/22 17:22:42;;;;;;;8.70;4.70;;;28.60;67.70;;;;;;4891133;29;20033;-73
2023/05/22 17:25:08;;;;;;;7.20;4.57;;;28.30;68.00;;;;;;4890522;29;20075;-73
2023/05/22 17:27:34;;;;;;;7.22;4.40;;;28.20;68.30;;;;;;4890765;29;20299;-72
2023/05/22 17:30:00;;;;;;;7.50;4.43;;;28.10;68.50;;;;;;4890298;29;20092;-73
2023/05/22 17:32:26;;;;;;;6.65;4.90;;;28.10;68.70;;;;;;4890986;29;20109;-73
2023/05/22 17:34:51;;;;;;;8.02;5.32;;;27.90;68.60;;;;;;4873371;29;20040;-77
2023/05/22 17:37:17;;;;;;;5.70;4.88;;;27.60;69.00;;;;;;4890859;29;20333;-74
2023/05/22 17:39:43;;;;;;;7.13;5.00;;;27.40;69.50;;;;;;4890682;29;20044;-72
2023/05/22 17:42:09;;;;;;;7.18;5.25;;;27.40;69.50;;;;;;4889159;29;20029;-74
2023/05/22 17:44:35;;;;;;;8.43;5.38;;;27.30;70.00;;;;;;4890683;29;20025;-74